sensor_id;sensor_type;location;lat;lon;timestamp;P1;durP1;ratioP1;P2;durP2;ratioP2
17079;SDS011;8655;57.106;-2.088;2022-09-01T00:02:13;1.00;;;1.00;;
17079;SDS011;8655;57.106;-2.088;2022-09-01T00:04:40;0.85;;;0.85;;
17079;SDS011;8655;57.106;-2.088;2022-09-01T00:07:08;1.85;;;1.23;;
17079;SDS011;8655;57.106;-2.088;2022-09-01T00:09:36;1.02;;;1.00;;
17079;SDS011;8655;57.106;-2.088;2022-09-01T00:12:04;1.00;;;1.00;;
17079;SDS011;8655;57.106;-2.088;2022-09-01T00:14:33;0.70;;;0.70;;
17079;SDS011;8655;57.106;-2.088;2022-09-01T00:17:03;1.00;;;1.00;;
17079;SDS011;8655;57.106;-2.088;2022-09-01T00:19:30;1.15;;;1.05;;
17079;SDS011;8655;57.106;-2.088;2022-09-01T00:21:57;0.90;;;0.90;;
17079;SDS011;8655;57.106;-2.088;2022-09-01T00:24:24;0.98;;;0.90;;
17079;SDS011;8655;57.106;-2.088;2022-09-01T00:26:50;1.13;;;1.02;;
17079;SDS011;8655;57.106;-2.088;2022-09-01T00:29:17;1.27;;;0.93;;
17079;SDS011;8655;57.106;-2.088;2022-09-01T00:31:43;1.00;;;0.90;;
17079;SDS011;8655;57.106;-2.088;2022-09-01T00:34:09;0.98;;;0.98;;
17079;SDS011;8655;57.106;-2.088;2022-09-01T00:36:35;1.30;;;0.98;;
17079;SDS011;8655;57.106;-2.088;2022-09-01T00:39:01;0.82;;;0.82;;
17079;SDS011;8655;57.106;-2.088;2022-09-01T00:41:29;1.13;;;0.93;;
17079;SDS011;8655;57.106;-2.088;2022-09-01T00:43:58;0.80;;;0.80;;
17079;SDS011;8655;57.106;-2.088;2022-09-01T00:46:29;1.08;;;1.00;;
17079;SDS011;8655;57.106;-2.088;2022-09-01T00:49:09;1.00;;;1.00;;
17079;SDS011;8655;57.106;-2.088;2022-09-01T00:51:39;0.88;;;0.88;;
17079;SDS011;8655;57.106;-2.088;2022-09-01T00:54:09;0.80;;;0.80;;
17079;SDS011;8655;57.106;-2.088;2022-09-01T00:56:38;1.85;;;1.20;;
17079;SDS011;8655;57.106;-2.088;2022-09-01T00:59:06;0.93;;;0.90;;
17079;SDS011;8655;57.106;-2.088;2022-09-01T01:01:33;1.15;;;1.00;;
17079;SDS011;8655;57.106;-2.088;2022-09-01T01:04:01;1.40;;;1.20;;
17079;SDS011;8655;57.106;-2.088;2022-09-01T01:06:27;1.10;;;1.00;;
17079;SDS011;8655;57.106;-2.088;2022-09-01T01:08:55;1.00;;;0.90;;
17079;SDS011;8655;57.106;-2.088;2022-09-01T01:11:23;0.77;;;0.77;;
17079;SDS011;8655;57.106;-2.088;2022-09-01T01:16:18;1.13;;;1.02;;
17079;SDS011;8655;57.106;-2.088;2022-09-01T01:18:45;1.58;;;1.17;;
17079;SDS011;8655;57.106;-2.088;2022-09-01T01:21:18;1.00;;;1.00;;
17079;SDS011;8655;57.106;-2.088;2022-09-01T01:24:16;0.93;;;0.93;;
17079;SDS011;8655;57.106;-2.088;2022-09-01T01:26:52;1.20;;;1.10;;
17079;SDS011;8655;57.106;-2.088;2022-09-01T01:29:21;0.90;;;0.90;;
17079;SDS011;8655;57.106;-2.088;2022-09-01T01:31:48;0.90;;;0.90;;
17079;SDS011;8655;57.106;-2.088;2022-09-01T01:34:16;1.20;;;1.10;;
17079;SDS011;8655;57.106;-2.088;2022-09-01T01:36:45;1.17;;;1.08;;
17079;SDS011;8655;57.106;-2.088;2022-09-01T01:39:17;1.15;;;1.05;;
17079;SDS011;8655;57.106;-2.088;2022-09-01T01:41:49;0.75;;;0.70;;
17079;SDS011;8655;57.106;-2.088;2022-09-01T01:44:18;1.50;;;1.05;;
17079;SDS011;8655;57.106;-2.088;2022-09-01T01:46:48;1.15;;;1.05;;
17079;SDS011;8655;57.106;-2.088;2022-09-01T01:49:17;1.00;;;0.90;;
17079;SDS011;8655;57.106;-2.088;2022-09-01T01:51:50;0.80;;;0.80;;
17079;SDS011;8655;57.106;-2.088;2022-09-01T01:54:20;1.30;;;1.20;;
17079;SDS011;8655;57.106;-2.088;2022-09-01T01:56:47;0.98;;;0.98;;
17079;SDS011;8655;57.106;-2.088;2022-09-01T01:59:13;1.13;;;0.98;;
17079;SDS011;8655;57.106;-2.088;2022-09-01T02:01:41;0.90;;;0.90;;
17079;SDS011;8655;57.106;-2.088;2022-09-01T02:04:15;1.10;;;1.00;;
17079;SDS011;8655;57.106;-2.088;2022-09-01T02:06:44;0.98;;;0.95;;
17079;SDS011;8655;57.106;-2.088;2022-09-01T02:09:12;0.90;;;0.90;;
17079;SDS011;8655;57.106;-2.088;2022-09-01T02:11:39;1.05;;;1.00;;
17079;SDS011;8655;57.106;-2.088;2022-09-01T02:14:06;1.15;;;1.05;;
17079;SDS011;8655;57.106;-2.088;2022-09-01T02:16:33;1.20;;;1.00;;
17079;SDS011;8655;57.106;-2.088;2022-09-01T02:19:02;1.08;;;0.90;;
17079;SDS011;8655;57.106;-2.088;2022-09-01T02:21:30;1.08;;;0.98;;
17079;SDS011;8655;57.106;-2.088;2022-09-01T02:23:57;1.15;;;1.05;;
17079;SDS011;8655;57.106;-2.088;2022-09-01T02:26:27;1.00;;;0.90;;
17079;SDS011;8655;57.106;-2.088;2022-09-01T02:28:55;1.23;;;1.10;;
17079;SDS011;8655;57.106;-2.088;2022-09-01T02:31:26;1.20;;;1.10;;
17079;SDS011;8655;57.106;-2.088;2022-09-01T02:33:52;1.10;;;1.00;;
17079;SDS011;8655;57.106;-2.088;2022-09-01T02:36:18;1.35;;;1.25;;
17079;SDS011;8655;57.106;-2.088;2022-09-01T02:38:44;1.20;;;1.10;;
17079;SDS011;8655;57.106;-2.088;2022-09-01T02:41:13;1.00;;;1.00;;
17079;SDS011;8655;57.106;-2.088;2022-09-01T02:43:44;0.82;;;0.80;;
17079;SDS011;8655;57.106;-2.088;2022-09-01T02:46:10;1.20;;;1.10;;
17079;SDS011;8655;57.106;-2.088;2022-09-01T02:48:39;1.17;;;0.90;;
17079;SDS011;8655;57.106;-2.088;2022-09-01T02:51:09;1.17;;;0.90;;
17079;SDS011;8655;57.106;-2.088;2022-09-01T02:53:36;1.67;;;1.15;;
17079;SDS011;8655;57.106;-2.088;2022-09-01T02:56:04;0.93;;;0.93;;
17079;SDS011;8655;57.106;-2.088;2022-09-01T02:58:33;1.00;;;0.98;;
17079;SDS011;8655;57.106;-2.088;2022-09-01T03:01:09;0.80;;;0.77;;
17079;SDS011;8655;57.106;-2.088;2022-09-01T03:03:37;1.10;;;1.00;;
17079;SDS011;8655;57.106;-2.088;2022-09-01T03:06:03;1.10;;;1.00;;
17079;SDS011;8655;57.106;-2.088;2022-09-01T03:08:33;0.90;;;0.90;;
17079;SDS011;8655;57.106;-2.088;2022-09-01T03:11:00;1.27;;;1.02;;
17079;SDS011;8655;57.106;-2.088;2022-09-01T03:13:26;1.10;;;1.05;;
17079;SDS011;8655;57.106;-2.088;2022-09-01T03:15:53;0.90;;;0.90;;
17079;SDS011;8655;57.106;-2.088;2022-09-01T03:18:19;0.90;;;0.90;;
17079;SDS011;8655;57.106;-2.088;2022-09-01T03:20:45;1.10;;;1.00;;
17079;SDS011;8655;57.106;-2.088;2022-09-01T03:23:13;1.17;;;1.00;;
17079;SDS011;8655;57.106;-2.088;2022-09-01T03:25:41;1.15;;;1.00;;
17079;SDS011;8655;57.106;-2.088;2022-09-01T03:28:08;1.25;;;1.15;;
17079;SDS011;8655;57.106;-2.088;2022-09-01T03:30:35;0.90;;;0.82;;
17079;SDS011;8655;57.106;-2.088;2022-09-01T03:33:04;1.02;;;0.95;;
17079;SDS011;8655;57.106;-2.088;2022-09-01T03:35:31;0.85;;;0.82;;
17079;SDS011;8655;57.106;-2.088;2022-09-01T03:37:58;1.10;;;1.00;;
17079;SDS011;8655;57.106;-2.088;2022-09-01T03:40:34;1.20;;;1.10;;
17079;SDS011;8655;57.106;-2.088;2022-09-01T03:43:02;0.70;;;0.70;;
17079;SDS011;8655;57.106;-2.088;2022-09-01T03:45:29;1.10;;;1.00;;
17079;SDS011;8655;57.106;-2.088;2022-09-01T03:47:59;1.38;;;1.10;;
17079;SDS011;8655;57.106;-2.088;2022-09-01T03:50:25;0.93;;;0.93;;
17079;SDS011;8655;57.106;-2.088;2022-09-01T03:52:53;1.08;;;1.00;;
17079;SDS011;8655;57.106;-2.088;2022-09-01T03:55:24;0.85;;;0.85;;
17079;SDS011;8655;57.106;-2.088;2022-09-01T03:57:53;1.75;;;1.00;;
17079;SDS011;8655;57.106;-2.088;2022-09-01T04:00:22;0.98;;;0.90;;
17079;SDS011;8655;57.106;-2.088;2022-09-01T04:02:51;1.27;;;1.08;;
17079;SDS011;8655;57.106;-2.088;2022-09-01T04:05:20;1.30;;;1.20;;
17079;SDS011;8655;57.106;-2.088;2022-09-01T04:07:48;0.80;;;0.80;;
17079;SDS011;8655;57.106;-2.088;2022-09-01T04:10:15;1.40;;;1.10;;
17079;SDS011;8655;57.106;-2.088;2022-09-01T04:12:43;1.58;;;0.95;;
17079;SDS011;8655;57.106;-2.088;2022-09-01T04:15:10;1.38;;;1.20;;
17079;SDS011;8655;57.106;-2.088;2022-09-01T04:17:38;1.10;;;1.00;;
17079;SDS011;8655;57.106;-2.088;2022-09-01T04:20:22;0.90;;;0.90;;
17079;SDS011;8655;57.106;-2.088;2022-09-01T04:22:49;1.02;;;0.95;;
17079;SDS011;8655;57.106;-2.088;2022-09-01T04:25:15;1.17;;;1.10;;
17079;SDS011;8655;57.106;-2.088;2022-09-01T04:27:47;1.20;;;1.10;;
17079;SDS011;8655;57.106;-2.088;2022-09-01T04:30:13;1.10;;;1.00;;
17079;SDS011;8655;57.106;-2.088;2022-09-01T04:32:39;1.23;;;0.93;;
17079;SDS011;8655;57.106;-2.088;2022-09-01T04:35:07;1.10;;;1.00;;
17079;SDS011;8655;57.106;-2.088;2022-09-01T04:37:35;0.95;;;0.90;;
17079;SDS011;8655;57.106;-2.088;2022-09-01T04:40:02;0.90;;;0.90;;
17079;SDS011;8655;57.106;-2.088;2022-09-01T04:42:28;1.00;;;0.90;;
17079;SDS011;8655;57.106;-2.088;2022-09-01T04:44:56;1.25;;;1.00;;
17079;SDS011;8655;57.106;-2.088;2022-09-01T04:47:24;1.20;;;0.90;;
17079;SDS011;8655;57.106;-2.088;2022-09-01T04:49:54;1.05;;;0.95;;
17079;SDS011;8655;57.106;-2.088;2022-09-01T04:52:23;1.20;;;1.10;;
17079;SDS011;8655;57.106;-2.088;2022-09-01T04:54:49;1.20;;;1.10;;
17079;SDS011;8655;57.106;-2.088;2022-09-01T04:57:14;0.82;;;0.82;;
17079;SDS011;8655;57.106;-2.088;2022-09-01T04:59:41;0.90;;;0.90;;
17079;SDS011;8655;57.106;-2.088;2022-09-01T05:02:07;1.65;;;1.02;;
17079;SDS011;8655;57.106;-2.088;2022-09-01T05:04:33;0.90;;;0.90;;
17079;SDS011;8655;57.106;-2.088;2022-09-01T05:07:00;1.08;;;0.98;;
17079;SDS011;8655;57.106;-2.088;2022-09-01T05:09:28;1.08;;;1.00;;
17079;SDS011;8655;57.106;-2.088;2022-09-01T05:11:56;1.13;;;1.02;;
17079;SDS011;8655;57.106;-2.088;2022-09-01T05:14:35;0.80;;;0.80;;
17079;SDS011;8655;57.106;-2.088;2022-09-01T05:17:06;1.40;;;1.13;;
17079;SDS011;8655;57.106;-2.088;2022-09-01T05:19:38;0.98;;;0.93;;
17079;SDS011;8655;57.106;-2.088;2022-09-01T05:22:07;1.15;;;0.98;;
17079;SDS011;8655;57.106;-2.088;2022-09-01T05:24:34;0.98;;;0.98;;
17079;SDS011;8655;57.106;-2.088;2022-09-01T05:27:02;0.85;;;0.85;;
17079;SDS011;8655;57.106;-2.088;2022-09-01T05:29:29;1.23;;;1.10;;
17079;SDS011;8655;57.106;-2.088;2022-09-01T05:31:55;1.02;;;1.00;;
17079;SDS011;8655;57.106;-2.088;2022-09-01T05:34:23;1.40;;;1.17;;
17079;SDS011;8655;57.106;-2.088;2022-09-01T05:36:55;1.17;;;1.08;;
17079;SDS011;8655;57.106;-2.088;2022-09-01T05:39:23;0.98;;;0.98;;
17079;SDS011;8655;57.106;-2.088;2022-09-01T05:41:51;2.38;;;1.10;;
17079;SDS011;8655;57.106;-2.088;2022-09-01T05:44:18;1.17;;;1.08;;
17079;SDS011;8655;57.106;-2.088;2022-09-01T05:46:47;0.98;;;0.90;;
17079;SDS011;8655;57.106;-2.088;2022-09-01T05:49:14;0.88;;;0.88;;
17079;SDS011;8655;57.106;-2.088;2022-09-01T05:51:43;1.10;;;1.00;;
17079;SDS011;8655;57.106;-2.088;2022-09-01T05:54:13;1.10;;;1.00;;
17079;SDS011;8655;57.106;-2.088;2022-09-01T05:56:40;1.10;;;1.05;;
17079;SDS011;8655;57.106;-2.088;2022-09-01T05:59:07;0.80;;;0.77;;
17079;SDS011;8655;57.106;-2.088;2022-09-01T06:01:35;1.20;;;0.90;;
17079;SDS011;8655;57.106;-2.088;2022-09-01T06:04:05;1.00;;;0.95;;
17079;SDS011;8655;57.106;-2.088;2022-09-01T06:06:37;0.93;;;0.88;;
17079;SDS011;8655;57.106;-2.088;2022-09-01T06:09:13;0.75;;;0.75;;
17079;SDS011;8655;57.106;-2.088;2022-09-01T06:11:45;0.95;;;0.95;;
17079;SDS011;8655;57.106;-2.088;2022-09-01T06:14:11;0.95;;;0.95;;
17079;SDS011;8655;57.106;-2.088;2022-09-01T06:16:39;1.05;;;0.95;;
17079;SDS011;8655;57.106;-2.088;2022-09-01T06:19:06;1.10;;;1.00;;
17079;SDS011;8655;57.106;-2.088;2022-09-01T06:21:32;1.00;;;0.90;;
17079;SDS011;8655;57.106;-2.088;2022-09-01T06:23:58;1.08;;;0.98;;
17079;SDS011;8655;57.106;-2.088;2022-09-01T06:28:56;1.60;;;1.10;;
17079;SDS011;8655;57.106;-2.088;2022-09-01T06:31:25;0.85;;;0.85;;
17079;SDS011;8655;57.106;-2.088;2022-09-01T06:33:54;0.82;;;0.80;;
17079;SDS011;8655;57.106;-2.088;2022-09-01T06:36:22;1.25;;;1.15;;
17079;SDS011;8655;57.106;-2.088;2022-09-01T06:38:50;1.95;;;1.20;;
17079;SDS011;8655;57.106;-2.088;2022-09-01T06:41:17;1.27;;;0.95;;
17079;SDS011;8655;57.106;-2.088;2022-09-01T06:43:47;0.90;;;0.90;;
17079;SDS011;8655;57.106;-2.088;2022-09-01T06:46:17;0.93;;;0.90;;
17079;SDS011;8655;57.106;-2.088;2022-09-01T06:48:45;1.05;;;1.05;;
17079;SDS011;8655;57.106;-2.088;2022-09-01T06:51:12;0.80;;;0.80;;
17079;SDS011;8655;57.106;-2.088;2022-09-01T06:53:40;0.90;;;0.90;;
17079;SDS011;8655;57.106;-2.088;2022-09-01T06:56:07;0.93;;;0.93;;
17079;SDS011;8655;57.106;-2.088;2022-09-01T06:58:38;0.93;;;0.90;;
17079;SDS011;8655;57.106;-2.088;2022-09-01T07:01:08;0.80;;;0.80;;
17079;SDS011;8655;57.106;-2.088;2022-09-01T07:03:43;1.08;;;0.90;;
17079;SDS011;8655;57.106;-2.088;2022-09-01T07:06:11;1.02;;;0.90;;
17079;SDS011;8655;57.106;-2.088;2022-09-01T07:08:38;1.20;;;1.00;;
17079;SDS011;8655;57.106;-2.088;2022-09-01T07:11:13;1.02;;;1.02;;
17079;SDS011;8655;57.106;-2.088;2022-09-01T07:13:49;1.23;;;1.13;;
17079;SDS011;8655;57.106;-2.088;2022-09-01T07:16:18;0.85;;;0.85;;
17079;SDS011;8655;57.106;-2.088;2022-09-01T07:18:50;1.25;;;1.15;;
17079;SDS011;8655;57.106;-2.088;2022-09-01T07:21:18;1.05;;;1.00;;
17079;SDS011;8655;57.106;-2.088;2022-09-01T07:23:44;1.20;;;1.10;;
17079;SDS011;8655;57.106;-2.088;2022-09-01T07:26:11;1.30;;;1.00;;
17079;SDS011;8655;57.106;-2.088;2022-09-01T07:28:42;0.80;;;0.80;;
17079;SDS011;8655;57.106;-2.088;2022-09-01T07:31:16;1.13;;;1.05;;
17079;SDS011;8655;57.106;-2.088;2022-09-01T07:33:48;0.73;;;0.73;;
17079;SDS011;8655;57.106;-2.088;2022-09-01T07:36:18;1.33;;;1.05;;
17079;SDS011;8655;57.106;-2.088;2022-09-01T07:38:44;1.10;;;1.05;;
17079;SDS011;8655;57.106;-2.088;2022-09-01T07:41:15;0.82;;;0.82;;
17079;SDS011;8655;57.106;-2.088;2022-09-01T07:43:41;1.00;;;0.90;;
17079;SDS011;8655;57.106;-2.088;2022-09-01T07:46:09;0.93;;;0.93;;
17079;SDS011;8655;57.106;-2.088;2022-09-01T07:48:36;1.02;;;0.93;;
17079;SDS011;8655;57.106;-2.088;2022-09-01T07:51:02;1.17;;;1.08;;
17079;SDS011;8655;57.106;-2.088;2022-09-01T07:53:29;1.13;;;0.93;;
17079;SDS011;8655;57.106;-2.088;2022-09-01T07:55:59;0.73;;;0.73;;
17079;SDS011;8655;57.106;-2.088;2022-09-01T07:58:31;0.80;;;0.80;;
17079;SDS011;8655;57.106;-2.088;2022-09-01T08:00:58;1.23;;;1.10;;
17079;SDS011;8655;57.106;-2.088;2022-09-01T08:03:27;1.05;;;0.90;;
17079;SDS011;8655;57.106;-2.088;2022-09-01T08:05:54;0.80;;;0.80;;
17079;SDS011;8655;57.106;-2.088;2022-09-01T08:08:25;0.80;;;0.80;;
17079;SDS011;8655;57.106;-2.088;2022-09-01T08:10:51;1.67;;;0.80;;
17079;SDS011;8655;57.106;-2.088;2022-09-01T08:13:17;1.45;;;0.90;;
17079;SDS011;8655;57.106;-2.088;2022-09-01T08:15:43;0.82;;;0.82;;
17079;SDS011;8655;57.106;-2.088;2022-09-01T08:18:09;1.23;;;1.13;;
17079;SDS011;8655;57.106;-2.088;2022-09-01T08:20:36;1.08;;;0.98;;
17079;SDS011;8655;57.106;-2.088;2022-09-01T08:23:09;0.90;;;0.90;;
17079;SDS011;8655;57.106;-2.088;2022-09-01T08:25:36;1.10;;;1.00;;
17079;SDS011;8655;57.106;-2.088;2022-09-01T08:28:04;0.95;;;0.90;;
17079;SDS011;8655;57.106;-2.088;2022-09-01T08:30:30;0.80;;;0.80;;
17079;SDS011;8655;57.106;-2.088;2022-09-01T08:32:57;0.80;;;0.80;;
17079;SDS011;8655;57.106;-2.088;2022-09-01T08:35:23;1.40;;;1.08;;
17079;SDS011;8655;57.106;-2.088;2022-09-01T08:37:49;0.80;;;0.80;;
17079;SDS011;8655;57.106;-2.088;2022-09-01T08:40:15;0.90;;;0.90;;
17079;SDS011;8655;57.106;-2.088;2022-09-01T08:48:33;0.80;;;0.80;;
17079;SDS011;8655;57.106;-2.088;2022-09-01T08:54:19;0.90;;;0.90;;
17079;SDS011;8655;57.106;-2.088;2022-09-01T08:57:04;1.83;;;1.00;;
17079;SDS011;8655;57.106;-2.088;2022-09-01T08:59:32;1.15;;;0.98;;
17079;SDS011;8655;57.106;-2.088;2022-09-01T09:07:33;1.02;;;0.90;;
17079;SDS011;8655;57.106;-2.088;2022-09-01T09:10:25;1.33;;;1.02;;
17079;SDS011;8655;57.106;-2.088;2022-09-01T09:13:06;1.52;;;1.20;;
17079;SDS011;8655;57.106;-2.088;2022-09-01T09:15:46;1.00;;;1.00;;
17079;SDS011;8655;57.106;-2.088;2022-09-01T09:18:41;1.25;;;1.02;;
17079;SDS011;8655;57.106;-2.088;2022-09-01T09:21:32;1.63;;;1.30;;
17079;SDS011;8655;57.106;-2.088;2022-09-01T09:24:23;1.30;;;1.20;;
17079;SDS011;8655;57.106;-2.088;2022-09-01T09:26:52;1.40;;;1.05;;
17079;SDS011;8655;57.106;-2.088;2022-09-01T09:29:20;1.50;;;1.00;;
17079;SDS011;8655;57.106;-2.088;2022-09-01T09:31:47;1.30;;;1.17;;
17079;SDS011;8655;57.106;-2.088;2022-09-01T09:34:28;1.20;;;1.10;;
17079;SDS011;8655;57.106;-2.088;2022-09-01T09:37:24;1.30;;;1.20;;
17079;SDS011;8655;57.106;-2.088;2022-09-01T09:40:13;1.25;;;1.15;;
17079;SDS011;8655;57.106;-2.088;2022-09-01T09:47:47;1.30;;;1.17;;
17079;SDS011;8655;57.106;-2.088;2022-09-01T09:52:51;1.20;;;1.10;;
17079;SDS011;8655;57.106;-2.088;2022-09-01T09:57:48;1.25;;;1.15;;
17079;SDS011;8655;57.106;-2.088;2022-09-01T10:00:22;1.37;;;1.20;;
17079;SDS011;8655;57.106;-2.088;2022-09-01T10:02:55;1.80;;;1.20;;
17079;SDS011;8655;57.106;-2.088;2022-09-01T10:08:04;1.30;;;1.07;;
17079;SDS011;8655;57.106;-2.088;2022-09-01T10:10:47;2.17;;;1.35;;
17079;SDS011;8655;57.106;-2.088;2022-09-01T10:13:21;1.95;;;1.20;;
17079;SDS011;8655;57.106;-2.088;2022-09-01T10:15:59;1.58;;;1.10;;
17079;SDS011;8655;57.106;-2.088;2022-09-01T10:18:29;1.70;;;1.27;;
17079;SDS011;8655;57.106;-2.088;2022-09-01T10:21:11;2.53;;;1.40;;
17079;SDS011;8655;57.106;-2.088;2022-09-01T10:23:39;2.22;;;1.35;;
17079;SDS011;8655;57.106;-2.088;2022-09-01T10:26:28;1.30;;;1.20;;
17079;SDS011;8655;57.106;-2.088;2022-09-01T10:31:34;1.17;;;1.07;;
17079;SDS011;8655;57.106;-2.088;2022-09-01T10:34:01;1.30;;;1.20;;
17079;SDS011;8655;57.106;-2.088;2022-09-01T10:36:30;3.45;;;1.38;;
17079;SDS011;8655;57.106;-2.088;2022-09-01T10:38:56;2.05;;;1.45;;
17079;SDS011;8655;57.106;-2.088;2022-09-01T10:44:07;2.33;;;1.42;;
17079;SDS011;8655;57.106;-2.088;2022-09-01T10:49:00;2.70;;;1.58;;
17079;SDS011;8655;57.106;-2.088;2022-09-01T10:53:52;3.85;;;1.67;;
17079;SDS011;8655;57.106;-2.088;2022-09-01T10:56:23;2.28;;;1.50;;
17079;SDS011;8655;57.106;-2.088;2022-09-01T11:07:04;2.35;;;1.30;;
17079;SDS011;8655;57.106;-2.088;2022-09-01T11:15:41;2.25;;;1.45;;
17079;SDS011;8655;57.106;-2.088;2022-09-01T11:18:10;1.55;;;1.40;;
17079;SDS011;8655;57.106;-2.088;2022-09-01T11:20:47;3.63;;;1.98;;
17079;SDS011;8655;57.106;-2.088;2022-09-01T11:23:24;2.10;;;1.55;;
17079;SDS011;8655;57.106;-2.088;2022-09-01T11:25:56;2.85;;;1.50;;
17079;SDS011;8655;57.106;-2.088;2022-09-01T11:36:04;2.72;;;1.63;;
17079;SDS011;8655;57.106;-2.088;2022-09-01T11:39:38;4.18;;;1.65;;
17079;SDS011;8655;57.106;-2.088;2022-09-01T11:47:12;3.05;;;1.73;;
17079;SDS011;8655;57.106;-2.088;2022-09-01T11:49:58;3.17;;;1.80;;
17079;SDS011;8655;57.106;-2.088;2022-09-01T11:52:35;4.68;;;1.98;;
17079;SDS011;8655;57.106;-2.088;2022-09-01T11:55:03;2.30;;;1.80;;
17079;SDS011;8655;57.106;-2.088;2022-09-01T11:57:31;3.08;;;1.80;;
17079;SDS011;8655;57.106;-2.088;2022-09-01T12:00:00;3.80;;;1.45;;
17079;SDS011;8655;57.106;-2.088;2022-09-01T12:02:31;5.38;;;1.85;;
17079;SDS011;8655;57.106;-2.088;2022-09-01T12:05:00;3.50;;;2.10;;
17079;SDS011;8655;57.106;-2.088;2022-09-01T12:07:43;1.98;;;1.40;;
17079;SDS011;8655;57.106;-2.088;2022-09-01T12:12:44;2.90;;;1.70;;
17079;SDS011;8655;57.106;-2.088;2022-09-01T12:15:17;3.13;;;1.60;;
17079;SDS011;8655;57.106;-2.088;2022-09-01T12:17:48;4.78;;;1.90;;
17079;SDS011;8655;57.106;-2.088;2022-09-01T12:20:17;3.58;;;1.88;;
17079;SDS011;8655;57.106;-2.088;2022-09-01T12:22:43;3.13;;;1.88;;
17079;SDS011;8655;57.106;-2.088;2022-09-01T12:25:17;2.92;;;1.80;;
17079;SDS011;8655;57.106;-2.088;2022-09-01T12:27:55;2.58;;;2.00;;
17079;SDS011;8655;57.106;-2.088;2022-09-01T12:30:24;2.42;;;2.05;;
17079;SDS011;8655;57.106;-2.088;2022-09-01T12:32:51;5.22;;;2.08;;
17079;SDS011;8655;57.106;-2.088;2022-09-01T12:35:21;4.15;;;2.20;;
17079;SDS011;8655;57.106;-2.088;2022-09-01T12:37:49;2.38;;;1.92;;
17079;SDS011;8655;57.106;-2.088;2022-09-01T12:40:32;4.25;;;2.00;;
17079;SDS011;8655;57.106;-2.088;2022-09-01T12:42:59;2.75;;;1.83;;
17079;SDS011;8655;57.106;-2.088;2022-09-01T12:45:35;4.53;;;2.08;;
17079;SDS011;8655;57.106;-2.088;2022-09-01T12:48:05;4.57;;;2.05;;
17079;SDS011;8655;57.106;-2.088;2022-09-01T12:50:33;4.85;;;2.10;;
17079;SDS011;8655;57.106;-2.088;2022-09-01T12:53:01;4.70;;;2.20;;
17079;SDS011;8655;57.106;-2.088;2022-09-01T12:55:37;3.42;;;1.85;;
17079;SDS011;8655;57.106;-2.088;2022-09-01T12:58:04;3.38;;;1.80;;
17079;SDS011;8655;57.106;-2.088;2022-09-01T13:00:32;3.67;;;1.90;;
17079;SDS011;8655;57.106;-2.088;2022-09-01T13:08:01;4.25;;;2.00;;
17079;SDS011;8655;57.106;-2.088;2022-09-01T13:10:35;4.28;;;2.20;;
17079;SDS011;8655;57.106;-2.088;2022-09-01T13:13:10;4.95;;;2.05;;
17079;SDS011;8655;57.106;-2.088;2022-09-01T13:15:38;6.10;;;2.10;;
17079;SDS011;8655;57.106;-2.088;2022-09-01T13:18:10;3.85;;;2.10;;
17079;SDS011;8655;57.106;-2.088;2022-09-01T13:20:36;5.78;;;2.10;;
17079;SDS011;8655;57.106;-2.088;2022-09-01T13:23:02;3.47;;;1.98;;
17079;SDS011;8655;57.106;-2.088;2022-09-01T13:25:28;3.20;;;2.00;;
17079;SDS011;8655;57.106;-2.088;2022-09-01T13:27:53;4.38;;;2.10;;
17079;SDS011;8655;57.106;-2.088;2022-09-01T13:30:20;7.43;;;2.40;;
17079;SDS011;8655;57.106;-2.088;2022-09-01T13:32:48;3.90;;;2.20;;
17079;SDS011;8655;57.106;-2.088;2022-09-01T13:35:15;4.15;;;2.05;;
17079;SDS011;8655;57.106;-2.088;2022-09-01T13:37:46;5.18;;;1.65;;
17079;SDS011;8655;57.106;-2.088;2022-09-01T13:40:12;3.97;;;2.35;;
17079;SDS011;8655;57.106;-2.088;2022-09-01T13:45:08;4.15;;;2.03;;
17079;SDS011;8655;57.106;-2.088;2022-09-01T13:47:38;7.38;;;2.25;;
17079;SDS011;8655;57.106;-2.088;2022-09-01T13:50:05;5.65;;;2.05;;
17079;SDS011;8655;57.106;-2.088;2022-09-01T13:52:31;2.90;;;2.10;;
17079;SDS011;8655;57.106;-2.088;2022-09-01T13:54:57;3.13;;;1.85;;
17079;SDS011;8655;57.106;-2.088;2022-09-01T13:57:23;4.75;;;2.03;;
17079;SDS011;8655;57.106;-2.088;2022-09-01T13:59:49;4.57;;;1.83;;
17079;SDS011;8655;57.106;-2.088;2022-09-01T14:02:15;7.43;;;2.20;;
17079;SDS011;8655;57.106;-2.088;2022-09-01T14:04:41;4.15;;;2.13;;
17079;SDS011;8655;57.106;-2.088;2022-09-01T14:07:07;3.35;;;1.80;;
17079;SDS011;8655;57.106;-2.088;2022-09-01T14:09:33;4.25;;;2.30;;
17079;SDS011;8655;57.106;-2.088;2022-09-01T14:11:58;6.07;;;2.03;;
17079;SDS011;8655;57.106;-2.088;2022-09-01T14:14:24;5.07;;;2.08;;
17079;SDS011;8655;57.106;-2.088;2022-09-01T14:16:50;3.55;;;1.75;;
17079;SDS011;8655;57.106;-2.088;2022-09-01T14:19:16;5.47;;;2.20;;
17079;SDS011;8655;57.106;-2.088;2022-09-01T14:21:42;5.18;;;2.20;;
17079;SDS011;8655;57.106;-2.088;2022-09-01T14:24:08;3.35;;;2.03;;
17079;SDS011;8655;57.106;-2.088;2022-09-01T14:26:34;4.10;;;2.15;;
17079;SDS011;8655;57.106;-2.088;2022-09-01T14:29:00;3.55;;;2.08;;
17079;SDS011;8655;57.106;-2.088;2022-09-01T14:31:26;3.45;;;2.05;;
17079;SDS011;8655;57.106;-2.088;2022-09-01T14:33:54;5.70;;;2.38;;
17079;SDS011;8655;57.106;-2.088;2022-09-01T14:36:21;5.30;;;2.05;;
17079;SDS011;8655;57.106;-2.088;2022-09-01T14:38:49;4.05;;;2.20;;
17079;SDS011;8655;57.106;-2.088;2022-09-01T14:41:16;4.95;;;2.28;;
17079;SDS011;8655;57.106;-2.088;2022-09-01T14:43:47;3.80;;;1.90;;
17079;SDS011;8655;57.106;-2.088;2022-09-01T14:46:14;6.85;;;2.65;;
17079;SDS011;8655;57.106;-2.088;2022-09-01T14:48:40;4.88;;;1.98;;
17079;SDS011;8655;57.106;-2.088;2022-09-01T14:51:07;4.25;;;1.95;;
17079;SDS011;8655;57.106;-2.088;2022-09-01T14:53:34;6.18;;;2.03;;
17079;SDS011;8655;57.106;-2.088;2022-09-01T14:56:00;4.22;;;1.80;;
17079;SDS011;8655;57.106;-2.088;2022-09-01T14:58:27;3.90;;;2.20;;
17079;SDS011;8655;57.106;-2.088;2022-09-01T15:00:53;4.07;;;2.10;;
17079;SDS011;8655;57.106;-2.088;2022-09-01T15:03:21;5.05;;;2.10;;
17079;SDS011;8655;57.106;-2.088;2022-09-01T15:05:50;3.72;;;1.90;;
17079;SDS011;8655;57.106;-2.088;2022-09-01T15:08:16;2.85;;;1.90;;
17079;SDS011;8655;57.106;-2.088;2022-09-01T15:10:42;2.13;;;1.77;;
17079;SDS011;8655;57.106;-2.088;2022-09-01T15:13:08;2.85;;;2.00;;
17079;SDS011;8655;57.106;-2.088;2022-09-01T15:15:34;2.22;;;1.77;;
17079;SDS011;8655;57.106;-2.088;2022-09-01T15:18:00;5.03;;;1.85;;
17079;SDS011;8655;57.106;-2.088;2022-09-01T15:20:27;4.82;;;1.75;;
17079;SDS011;8655;57.106;-2.088;2022-09-01T15:23:12;4.75;;;1.90;;
17079;SDS011;8655;57.106;-2.088;2022-09-01T15:25:44;5.85;;;2.13;;
17079;SDS011;8655;57.106;-2.088;2022-09-01T15:28:11;4.38;;;1.75;;
17079;SDS011;8655;57.106;-2.088;2022-09-01T15:30:37;5.38;;;1.65;;
17079;SDS011;8655;57.106;-2.088;2022-09-01T15:33:04;2.90;;;1.70;;
17079;SDS011;8655;57.106;-2.088;2022-09-01T15:35:32;2.95;;;1.73;;
17079;SDS011;8655;57.106;-2.088;2022-09-01T15:37:57;3.30;;;1.80;;
17079;SDS011;8655;57.106;-2.088;2022-09-01T15:40:24;2.22;;;1.65;;
17079;SDS011;8655;57.106;-2.088;2022-09-01T15:42:50;3.22;;;1.75;;
17079;SDS011;8655;57.106;-2.088;2022-09-01T15:45:17;2.45;;;1.70;;
17079;SDS011;8655;57.106;-2.088;2022-09-01T15:47:44;2.22;;;1.70;;
17079;SDS011;8655;57.106;-2.088;2022-09-01T15:50:13;4.57;;;1.95;;
17079;SDS011;8655;57.106;-2.088;2022-09-01T15:55:14;3.17;;;1.73;;
17079;SDS011;8655;57.106;-2.088;2022-09-01T15:57:41;4.00;;;1.70;;
17079;SDS011;8655;57.106;-2.088;2022-09-01T16:00:07;2.47;;;1.88;;
17079;SDS011;8655;57.106;-2.088;2022-09-01T16:02:33;4.80;;;1.75;;
17079;SDS011;8655;57.106;-2.088;2022-09-01T16:04:59;3.30;;;1.70;;
17079;SDS011;8655;57.106;-2.088;2022-09-01T16:07:24;4.25;;;2.05;;
17079;SDS011;8655;57.106;-2.088;2022-09-01T16:09:50;3.17;;;2.00;;
17079;SDS011;8655;57.106;-2.088;2022-09-01T16:12:22;3.47;;;1.90;;
17079;SDS011;8655;57.106;-2.088;2022-09-01T16:14:49;4.57;;;2.13;;
17079;SDS011;8655;57.106;-2.088;2022-09-01T16:17:25;4.93;;;2.20;;
17079;SDS011;8655;57.106;-2.088;2022-09-01T16:20:22;3.00;;;2.03;;
17079;SDS011;8655;57.106;-2.088;2022-09-01T16:22:56;3.40;;;2.03;;
17079;SDS011;8655;57.106;-2.088;2022-09-01T16:25:43;3.60;;;2.30;;